Jsp Bora — V2CQ4 — position and weather

sailwx.info

Track history (hours):
 
Tides and Currents Weather Stations Pressure Air Temp Water Temp Dewpoint Dewpoint Depression Visibility Wind Speed Wind Dir Waves Ship Positions

Jsp Bora

Last reported at 2017-Jul-23 03:35 UTC. Time now 2017-Jul-23 08:42 UTC.
Position N 36°46' E 003°04'.

Length 148 m; draft 8.9 m.

Type: Cargo ship. MMSI: 305079000.

Date/timePositionNaut miles runAvg speedWind from/ knotsBaromVisibWave heightAir tempDewpointWater temp
2017-Jul-23 03:35N 36°46' E 003°04'0 0.0
2017-Jul-23 03:08N 36°46' E 003°04'0 0.0
2017-Jul-23 02:53N 36°46' E 003°04'0 0.0
2017-Jul-23 01:50N 36°46' E 003°04'0 0.0
2017-Jul-23 01:29N 36°46' E 003°04'0 0.0
2017-Jul-22 10:23N 36°46' E 003°04'0 0.0
2017-Jul-22 04:47N 36°46' E 003°04'0 0.0
2017-Jul-22 04:29N 36°46' E 003°04'0 0.0
2017-Jul-22 03:05N 36°46' E 003°04'0 0.0
2017-Jul-22 02:59N 36°46' E 003°04'0 0.0
2017-Jul-22 02:29N 36°46' E 003°04'0 0.0
2017-Jul-22 00:35N 36°46' E 003°04'0 0.0
2017-Jul-22 00:23N 36°46' E 003°04'0 0.0
2017-Jul-21 14:29N 36°46' E 003°04'0 0.0
2017-Jul-20 06:36N 36°46' E 003°04'0 0.0
2017-Jul-20 06:29N 36°46' E 003°04'0 0.2
2017-Jul-20 05:59N 36°46' E 003°04'1 2.5
2017-Jul-20 05:27N 36°46' E 003°06'1 1.5
2017-Jul-20 05:01N 36°47' E 003°06'4 7.1
2017-Jul-20 04:28N 36°51' E 003°06'511.4
2017-Jul-20 04:01N 36°55' E 003°03'610.6
2017-Jul-20 03:29N 37°01' E 003°01'511.2
2017-Jul-20 03:00N 37°06' E 002°59'611.0
2017-Jul-20 02:29N 37°11' E 002°56'611.5
2017-Jul-20 01:56N 37°17' E 002°54'1312.5
2017-Jul-20 00:55N 37°29' E 002°48'612.6
2017-Jul-20 00:27N 37°34' E 002°46'612.7
2017-Jul-20 00:00N 37°40' E 002°43'612.5
2017-Jul-19 23:30N 37°46' E 002°40'612.5
2017-Jul-19 23:00N 37°51' E 002°37'612.2
2017-Jul-19 22:31N 37°57' E 002°35'612.5
2017-Jul-19 22:00N 38°03' E 002°32'713.1
2017-Jul-19 21:30N 38°09' E 002°29'712.9
2017-Jul-19 20:57N 38°16' E 002°26'612.8
2017-Jul-19 20:30N 38°21' E 002°23'612.6
2017-Jul-19 20:00N 38°27' E 002°20'612.3
2017-Jul-19 19:30N 38°33' E 002°18'612.1
2017-Jul-19 19:01N 38°38' E 002°15'612.0
2017-Jul-19 18:31N 38°44' E 002°12'612.0
2017-Jul-19 18:00N 38°50' E 002°09'611.8
2017-Jul-19 17:30N 38°55' E 002°07'611.9
2017-Jul-19 17:00N 39°01' E 002°04'612.0
2017-Jul-19 16:30N 39°06' E 002°01'612.1
2017-Jul-19 16:00N 39°12' E 001°58'612.2
2017-Jul-19 15:30N 39°18' E 001°56'612.2
2017-Jul-19 15:00N 39°23' E 001°53'612.0
2017-Jul-19 14:31N 39°29' E 001°50'611.6
2017-Jul-19 14:01N 39°35' E 001°51'611.8
2017-Jul-19 13:30N 39°41' E 001°52'612.0
2017-Jul-19 13:00N 39°47' E 001°53'612.4
2017-Jul-19 12:30N 39°53' E 001°54'612.4
2017-Jul-19 12:01N 39°59' E 001°56'612.6
2017-Jul-19 11:31N 40°05' E 001°57'612.6
2017-Jul-19 11:01N 40°11' E 001°58'612.7
2017-Jul-19 10:31N 40°18' E 001°59'612.9
2017-Jul-19 10:01N 40°24' E 002°00'713.0
2017-Jul-19 09:30N 40°30' E 002°01'713.0
2017-Jul-19 09:00N 40°37' E 002°03'613.0
2017-Jul-19 08:30N 40°43' E 002°04'713.0
2017-Jul-19 08:00N 40°50' E 002°05'712.9
2017-Jul-19 07:30N 40°56' E 002°07'713.1
2017-Jul-19 07:00N 41°03' E 002°08'612.9
2017-Jul-19 06:31N 41°09' E 002°09'612.2
2017-Jul-19 06:01N 41°15' E 002°10'4 6.3
2017-Jul-19 05:26N 41°19' E 002°09'0 0.3
2017-Jul-19 05:00N 41°19' E 002°09'0 0.0
2017-Jul-19 04:30N 41°19' E 002°09'0 0.0
2017-Jul-19 04:00N 41°19' E 002°09'0 0.0
2017-Jul-19 03:30N 41°19' E 002°09'0 0.0
2017-Jul-19 03:00N 41°19' E 002°09'0 0.0
2017-Jul-19 02:00N 41°19' E 002°09'0 0.0
2017-Jul-19 01:30N 41°19' E 002°09'0 0.0
2017-Jul-19 01:00N 41°19' E 002°09'0 0.0
2017-Jul-19 00:24N 41°19' E 002°09'0 0.0
2017-Jul-18 23:59N 41°19' E 002°09'0 0.0
2017-Jul-18 23:29N 41°19' E 002°09'0 0.0
2017-Jul-18 22:59N 41°19' E 002°09'0 0.0
2017-Jul-18 22:23N 41°19' E 002°09'0 0.0
2017-Jul-18 21:59N 41°19' E 002°09'0 0.0
2017-Jul-18 21:29N 41°19' E 002°09'0 0.0
2017-Jul-18 20:59N 41°19' E 002°09'0 0.0
2017-Jul-18 20:17N 41°19' E 002°09'0 0.1
2017-Jul-18 19:59N 41°19' E 002°09'0 0.0
2017-Jul-18 19:29N 41°19' E 002°09'0 0.4
2017-Jul-18 19:00N 41°19' E 002°09'3 5.7
2017-Jul-18 18:30N 41°17' E 002°12'0 0.8
2017-Jul-18 18:00N 41°17' E 002°13'1 2.0
2017-Jul-18 17:30N 41°17' E 002°14'2 3.7
2017-Jul-18 17:00N 41°17' E 002°17'1 2.6
2017-Jul-18 16:30N 41°17' E 002°18'0 0.7
2017-Jul-18 16:00N 41°17' E 002°18'0 0.8
2017-Jul-18 15:29N 41°16' E 002°18'0 0.7
2017-Jul-18 15:00N 41°16' E 002°18'1 0.7
2017-Jul-18 13:51N 41°15' E 002°18'0 0.5
2017-Jul-18 13:30N 41°15' E 002°18'0 0.5
2017-Jul-18 13:00N 41°15' E 002°18'0 0.4
2017-Jul-18 12:30N 41°14' E 002°18'0 0.4
2017-Jul-18 11:55N 41°14' E 002°18'0 0.4
2017-Jul-18 11:30N 41°14' E 002°18'0 0.5
2017-Jul-18 11:00N 41°14' E 002°18'0 0.3
2017-Jul-18 10:30N 41°14' E 002°18'0 0.1
2017-Jul-18 09:59N 41°14' E 002°18'2 3.1
2017-Jul-18 09:29N 41°15' E 002°18'4 8.8
2017-Jul-18 09:00N 41°19' E 002°20'4 8.4
2017-Jul-18 08:30N 41°22' E 002°24'5 9.0
2017-Jul-18 08:00N 41°24' E 002°30'4 9.1
2017-Jul-18 07:30N 41°25' E 002°35'5 9.1
2017-Jul-18 07:00N 41°27' E 002°41'5 9.0
2017-Jul-18 06:30N 41°29' E 002°46'5 9.1
2017-Jul-18 06:00N 41°31' E 002°52'5 9.7
2017-Jul-18 05:30N 41°33' E 002°58'5 9.4
2017-Jul-18 04:59N 41°35' E 003°04'5 9.0
2017-Jul-18 04:27N 41°38' E 003°09'4 9.6
2017-Jul-18 04:00N 41°41' E 003°13'5 9.4
2017-Jul-18 03:30N 41°45' E 003°17'5 9.0
2017-Jul-18 03:00N 41°48' E 003°21'5 9.1
2017-Jul-18 02:30N 41°51' E 003°25'4 9.0
2017-Jul-18 02:00N 41°55' E 003°29'5 9.3
2017-Jul-18 01:30N 41°58' E 003°33'5 9.5
2017-Jul-18 00:59N 42°02' E 003°38'4 9.5
2017-Jul-18 00:30N 42°05' E 003°42'5 9.4
2017-Jul-17 23:59N 42°09' E 003°46'5 9.4
2017-Jul-17 23:30N 42°12' E 003°50'5 9.1
2017-Jul-17 23:00N 42°16' E 003°54'5 9.2
2017-Jul-17 22:28N 42°20' E 003°59'4 9.0
2017-Jul-17 22:00N 42°23' E 004°02'5 9.4
2017-Jul-17 21:30N 42°26' E 004°07'5 9.6
2017-Jul-17 21:00N 42°30' E 004°11'5 9.7
2017-Jul-17 20:30N 42°34' E 004°15'5 9.6
2017-Jul-17 20:00N 42°37' E 004°19'5 9.7
2017-Jul-17 19:30N 42°41' E 004°24'5 9.6
2017-Jul-17 19:00N 42°44' E 004°28'5 9.4
2017-Jul-17 18:30N 42°48' E 004°32'5 9.5
2017-Jul-17 17:58N 42°52' E 004°36'5 9.8
2017-Jul-17 17:30N 42°55' E 004°41'5 9.7
2017-Jul-17 17:00N 42°59' E 004°45'5 9.7
2017-Jul-17 16:30N 43°03' E 004°49'5 9.8
2017-Jul-17 16:00N 43°06' E 004°54'5 9.7
2017-Jul-17 15:30N 43°10' E 004°58'5 9.0
2017-Jul-17 15:00N 43°14' E 005°00'5 9.6
2017-Jul-17 14:30N 43°19' E 004°59'510.0
2017-Jul-17 14:00N 43°23' E 004°56'5 6.4
2017-Jul-17 13:18N 43°25' E 004°50'0 0.0
2017-Jul-17 10:54N 43°25' E 004°50'0 0.0
2017-Jul-17 07:09N 43°25' E 004°50'0 0.7
2017-Jul-17 06:53N 43°25' E 004°50'3 6.2
2017-Jul-17 06:28N 43°24' E 004°53'3 5.8
2017-Jul-17 05:59N 43°24' E 004°57'0 0.0
2017-Jul-17 05:29N 43°24' E 004°57'0 0.0
2017-Jul-17 04:59N 43°24' E 004°57'0 0.0
2017-Jul-17 04:23N 43°24' E 004°57'0 0.0
2017-Jul-17 03:59N 43°24' E 004°57'0 0.1
2017-Jul-17 03:29N 43°24' E 004°57'0 0.0
2017-Jul-17 02:59N 43°24' E 004°57'0 0.0
2017-Jul-17 02:29N 43°24' E 004°57'0 0.0
2017-Jul-17 01:59N 43°24' E 004°57'0 0.0
2017-Jul-17 01:26N 43°24' E 004°57'0 0.0
2017-Jul-17 00:59N 43°24' E 004°57'0 0.1
2017-Jul-17 00:26N 43°24' E 004°57'0 0.0
2017-Jul-16 23:59N 43°24' E 004°57'0 0.1
2017-Jul-16 23:20N 43°24' E 004°57'0 0.1
2017-Jul-16 22:59N 43°24' E 004°57'0 0.0
2017-Jul-16 22:26N 43°24' E 004°57'0 0.0
2017-Jul-16 21:59N 43°24' E 004°57'0 0.0
2017-Jul-16 21:23N 43°24' E 004°57'0 0.0
2017-Jul-16 20:59N 43°24' E 004°57'0 0.0
2017-Jul-16 20:29N 43°24' E 004°57'0 0.0
2017-Jul-16 19:59N 43°24' E 004°57'0 0.0
2017-Jul-16 19:29N 43°24' E 004°57'0 0.0
2017-Jul-16 18:59N 43°24' E 004°57'0 0.0
2017-Jul-16 18:29N 43°24' E 004°57'0 0.0
2017-Jul-16 17:59N 43°24' E 004°57'0 0.1
2017-Jul-16 17:23N 43°24' E 004°57'0 0.0
2017-Jul-16 16:59N 43°24' E 004°57'0 0.0
2017-Jul-16 16:29N 43°24' E 004°57'0 0.0
2017-Jul-16 15:59N 43°24' E 004°57'0 0.1
2017-Jul-16 15:29N 43°24' E 004°57'0 0.0
2017-Jul-16 14:59N 43°24' E 004°57'0 0.1
2017-Jul-16 14:29N 43°24' E 004°57'0 0.0
2017-Jul-16 13:59N 43°24' E 004°57'0 0.0
2017-Jul-16 13:25N 43°24' E 004°57'0 0.0
2017-Jul-16 12:55N 43°24' E 004°57'0 0.1
2017-Jul-16 12:25N 43°24' E 004°57'0 0.1
2017-Jul-16 11:55N 43°23' E 004°57'0 0.1
2017-Jul-16 11:25N 43°23' E 004°57'0 0.1
2017-Jul-16 10:55N 43°23' E 004°57'0 0.0
2017-Jul-16 10:25N 43°23' E 004°57'0 0.0
2017-Jul-16 09:55N 43°23' E 004°57'0 0.0
2017-Jul-16 09:25N 43°23' E 004°57'0 0.0
2017-Jul-16 08:55N 43°23' E 004°57'0 0.0
2017-Jul-16 08:25N 43°23' E 004°57'0 0.0
2017-Jul-16 07:55N 43°23' E 004°57'0 0.0
2017-Jul-16 07:25N 43°23' E 004°57'0 0.0
2017-Jul-16 06:55N 43°23' E 004°57'0 0.0
2017-Jul-16 06:25N 43°23' E 004°57'0 0.0
2017-Jul-16 05:55N 43°23' E 004°57'0 0.0
2017-Jul-16 05:25N 43°23' E 004°57'0 0.0
2017-Jul-16 04:55N 43°23' E 004°57'0 0.0
2017-Jul-16 04:25N 43°23' E 004°57'0 0.0
2017-Jul-16 03:55N 43°23' E 004°57'0 0.0
2017-Jul-16 03:25N 43°23' E 004°57'0 0.0
2017-Jul-16 02:55N 43°23' E 004°57'1 2.0
2017-Jul-16 02:30N 43°23' E 004°57'4 7.2
2017-Jul-16 02:00N 43°19' E 004°59'910.0
2017-Jul-16 01:05N 43°11' E 005°03'0 5.8
2017-Jul-16 01:00N 43°10' E 005°03'4 5.1
2017-Jul-16 00:16N 43°09' E 005°08'2 7.8
2017-Jul-16 00:00N 43°09' E 005°11'81 7.5
2017-Jul-15 13:06N 43°02' E 007°02'1 8.3
2017-Jul-15 12:59N 43°02' E 007°03'4 8.4
2017-Jul-15 12:30N 43°03' E 007°08'4 8.7
2017-Jul-15 12:00N 43°05' E 007°14'4 8.6
2017-Jul-15 11:30N 43°07' E 007°19'4 8.7
2017-Jul-15 11:00N 43°08' E 007°25'4 8.6
2017-Jul-15 10:30N 43°10' E 007°30'4 8.4
2017-Jul-15 10:00N 43°11' E 007°36'4 8.3
2017-Jul-15 09:30N 43°12' E 007°41'6 8.2
2017-Jul-15 08:45N 43°15' E 007°49'3 8.1
2017-Jul-15 08:26N 43°16' E 007°52'4 8.1
2017-Jul-15 08:00N 43°17' E 007°57'4 8.2
2017-Jul-15 07:29N 43°19' E 008°02'4 8.3
2017-Jul-15 07:00N 43°20' E 008°07'4 8.1
2017-Jul-15 06:30N 43°22' E 008°12'4 8.1
2017-Jul-15 06:00N 43°24' E 008°17'4 8.3
2017-Jul-15 05:30N 43°26' E 008°22'4 8.1
2017-Jul-15 05:00N 43°28' E 008°27'4 8.1
2017-Jul-15 04:30N 43°30' E 008°32'4 8.1
2017-Jul-15 04:00N 43°32' E 008°36'4 9.0
2017-Jul-15 03:30N 43°34' E 008°42'4 8.9
2017-Jul-15 03:00N 43°36' E 008°47'4 8.9
2017-Jul-15 02:30N 43°38' E 008°53'4 8.7
2017-Jul-15 02:00N 43°40' E 008°58'4 8.6
2017-Jul-15 01:30N 43°42' E 009°03'4 8.5
2017-Jul-15 01:00N 43°44' E 009°09'4 8.4
2017-Jul-15 00:30N 43°46' E 009°14'4 8.6
2017-Jul-15 00:00N 43°48' E 009°19'4 8.6
2017-Jul-14 23:30N 43°50' E 009°24'4 8.6
2017-Jul-14 23:00N 43°52' E 009°30'4 8.6
2017-Jul-14 22:30N 43°54' E 009°35'4 8.6
2017-Jul-14 22:00N 43°56' E 009°40'4 8.5
2017-Jul-14 21:30N 43°58' E 009°45'4 8.5
2017-Jul-14 21:00N 44°00' E 009°51'3 6.8
2017-Jul-14 20:30N 44°02' E 009°54'0 0.1
2017-Jul-14 19:58N 44°02' E 009°54'0 0.0
2017-Jul-14 19:22N 44°02' E 009°54'0 0.0
2017-Jul-14 18:55N 44°02' E 009°54'0 0.0
2017-Jul-14 18:28N 44°02' E 009°54'0 0.0
2017-Jul-14 17:58N 44°02' E 009°54'0 0.0
2017-Jul-14 17:28N 44°02' E 009°54'0 0.0
2017-Jul-14 16:55N 44°02' E 009°54'0 0.0
2017-Jul-14 16:28N 44°02' E 009°54'0 0.0
2017-Jul-14 15:55N 44°02' E 009°54'0 0.0
2017-Jul-14 15:28N 44°02' E 009°54'0 0.0
2017-Jul-14 14:58N 44°02' E 009°54'0 0.0
2017-Jul-14 14:28N 44°02' E 009°54'0 0.0
2017-Jul-14 13:58N 44°02' E 009°54'0 0.0
2017-Jul-14 13:28N 44°02' E 009°54'0 0.0
2017-Jul-14 12:58N 44°02' E 009°54'0 0.1
2017-Jul-14 12:28N 44°02' E 009°54'0 0.0
2017-Jul-14 11:58N 44°02' E 009°54'0 0.0
2017-Jul-14 11:28N 44°02' E 009°54'0 0.0
2017-Jul-14 10:58N 44°02' E 009°54'0 0.0
2017-Jul-14 10:22N 44°02' E 009°54'0 0.0
2017-Jul-14 09:58N 44°02' E 009°54'0 0.2
2017-Jul-14 09:28N 44°02' E 009°54'0 0.3
2017-Jul-14 08:58N 44°02' E 009°54'0 0.0
2017-Jul-14 08:16N 44°02' E 009°54'0 0.0
2017-Jul-14 07:58N 44°02' E 009°54'0 0.0
2017-Jul-14 07:28N 44°02' E 009°54'0 0.0
2017-Jul-14 06:58N 44°02' E 009°54'0 0.0
2017-Jul-14 06:28N 44°02' E 009°54'0 0.0
2017-Jul-14 05:58N 44°02' E 009°54'0 0.1
2017-Jul-14 05:28N 44°02' E 009°54'0 0.1
2017-Jul-14 04:58N 44°02' E 009°54'0 0.1
2017-Jul-14 04:28N 44°02' E 009°54'0 0.0
2017-Jul-14 03:58N 44°02' E 009°54'0 0.0
2017-Jul-14 03:28N 44°02' E 009°54'0 0.0
2017-Jul-14 02:49N 44°02' E 009°54'0 0.1
2017-Jul-14 02:28N 44°02' E 009°54'0 0.1
2017-Jul-14 01:55N 44°02' E 009°54'0 0.0
2017-Jul-14 01:28N 44°02' E 009°54'0 0.0
2017-Jul-14 00:55N 44°02' E 009°54'0 0.0
2017-Jul-14 00:28N 44°02' E 009°54'0 0.0
2017-Jul-13 23:58N 44°02' E 009°54'0 0.0
2017-Jul-13 23:25N 44°02' E 009°54'0 0.0
2017-Jul-13 22:55N 44°02' E 009°54'0 0.0
2017-Jul-13 22:25N 44°02' E 009°54'0 0.0
2017-Jul-13 21:58N 44°02' E 009°54'0 0.0
2017-Jul-13 21:28N 44°02' E 009°54'0 0.1
2017-Jul-13 20:58N 44°02' E 009°54'0 0.0
2017-Jul-13 20:28N 44°02' E 009°54'0 0.0
2017-Jul-13 19:58N 44°02' E 009°54'0 0.0
2017-Jul-13 19:28N 44°02' E 009°54'0 0.0
2017-Jul-13 18:58N 44°02' E 009°54'0 0.0
2017-Jul-13 18:25N 44°02' E 009°54'0 0.0
2017-Jul-13 17:58N 44°02' E 009°54'0 0.0
2017-Jul-13 17:28N 44°02' E 009°54'0 0.0
2017-Jul-13 16:58N 44°02' E 009°54'0 0.0
2017-Jul-13 16:28N 44°02' E 009°54'0 0.0
2017-Jul-13 15:58N 44°02' E 009°54'0 0.0
2017-Jul-13 15:25N 44°02' E 009°54'0 0.0
2017-Jul-13 14:58N 44°02' E 009°54'0 0.0
2017-Jul-13 14:28N 44°02' E 009°54'0 0.0
2017-Jul-13 13:58N 44°02' E 009°54'0 0.0
2017-Jul-13 13:28N 44°02' E 009°54'0 0.0
2017-Jul-13 12:58N 44°02' E 009°54'0 0.0
2017-Jul-13 12:28N 44°02' E 009°54'0 0.0
2017-Jul-13 11:58N 44°02' E 009°54'0 0.0
2017-Jul-13 11:28N 44°02' E 009°54'0 0.8
2017-Jul-13 11:00N 44°03' E 009°54'4 8.8
2017-Jul-13 10:31N 44°06' E 009°51'0 0.4
2017-Jul-13 09:58N 44°07' E 009°51'0 0.0
2017-Jul-13 09:25N 44°07' E 009°51'0 0.0
2017-Jul-13 08:58N 44°07' E 009°51'0 0.0
2017-Jul-13 08:28N 44°07' E 009°51'0 0.0
2017-Jul-13 07:58N 44°07' E 009°51'0 0.0
2017-Jul-13 07:25N 44°07' E 009°51'0 0.0
2017-Jul-13 06:58N 44°07' E 009°51'0 0.0
2017-Jul-13 06:28N 44°07' E 009°51'0 0.0
2017-Jul-13 05:58N 44°07' E 009°51'0 0.0
2017-Jul-13 05:28N 44°07' E 009°51'0 0.0
2017-Jul-13 04:58N 44°07' E 009°51'0 0.0
2017-Jul-13 04:28N 44°07' E 009°51'0 0.0
2017-Jul-13 03:55N 44°07' E 009°51'  
Track history (hours):
 
Tides and Currents Weather Stations Pressure Air Temp Water Temp Dewpoint Dewpoint Depression Visibility Wind Speed Wind Dir Waves Ship Positions

Jsp Bora

Last reported at 2017-Jul-23 03:35 UTC. Time now 2017-Jul-23 08:42 UTC.
Position N 36°46' E 003°04'.

Length 148 m; draft 8.9 m.

Type: Cargo ship. MMSI: 305079000.

Date/timePositionNaut miles runAvg speedWind from/ knotsBaromVisibWave heightAir tempDewpointWater temp
2017-Jul-23 03:35N 36°46' E 003°04'0 0.0
2017-Jul-23 03:08N 36°46' E 003°04'0 0.0
2017-Jul-23 02:53N 36°46' E 003°04'0 0.0
2017-Jul-23 01:50N 36°46' E 003°04'0 0.0
2017-Jul-23 01:29N 36°46' E 003°04'0 0.0
2017-Jul-22 10:23N 36°46' E 003°04'0 0.0
2017-Jul-22 04:47N 36°46' E 003°04'0 0.0
2017-Jul-22 04:29N 36°46' E 003°04'0 0.0
2017-Jul-22 03:05N 36°46' E 003°04'0 0.0
2017-Jul-22 02:59N 36°46' E 003°04'0 0.0
2017-Jul-22 02:29N 36°46' E 003°04'0 0.0
2017-Jul-22 00:35N 36°46' E 003°04'0 0.0
2017-Jul-22 00:23N 36°46' E 003°04'0 0.0
2017-Jul-21 14:29N 36°46' E 003°04'0 0.0
2017-Jul-20 06:36N 36°46' E 003°04'0 0.0
2017-Jul-20 06:29N 36°46' E 003°04'0 0.2
2017-Jul-20 05:59N 36°46' E 003°04'1 2.5
2017-Jul-20 05:27N 36°46' E 003°06'1 1.5
2017-Jul-20 05:01N 36°47' E 003°06'4 7.1
2017-Jul-20 04:28N 36°51' E 003°06'511.4
2017-Jul-20 04:01N 36°55' E 003°03'610.6
2017-Jul-20 03:29N 37°01' E 003°01'511.2
2017-Jul-20 03:00N 37°06' E 002°59'611.0
2017-Jul-20 02:29N 37°11' E 002°56'611.5
2017-Jul-20 01:56N 37°17' E 002°54'1312.5
2017-Jul-20 00:55N 37°29' E 002°48'612.6
2017-Jul-20 00:27N 37°34' E 002°46'612.7
2017-Jul-20 00:00N 37°40' E 002°43'612.5
2017-Jul-19 23:30N 37°46' E 002°40'612.5
2017-Jul-19 23:00N 37°51' E 002°37'612.2
2017-Jul-19 22:31N 37°57' E 002°35'612.5
2017-Jul-19 22:00N 38°03' E 002°32'713.1
2017-Jul-19 21:30N 38°09' E 002°29'712.9
2017-Jul-19 20:57N 38°16' E 002°26'612.8
2017-Jul-19 20:30N 38°21' E 002°23'612.6
2017-Jul-19 20:00N 38°27' E 002°20'612.3
2017-Jul-19 19:30N 38°33' E 002°18'612.1
2017-Jul-19 19:01N 38°38' E 002°15'612.0
2017-Jul-19 18:31N 38°44' E 002°12'612.0
2017-Jul-19 18:00N 38°50' E 002°09'611.8
2017-Jul-19 17:30N 38°55' E 002°07'611.9
2017-Jul-19 17:00N 39°01' E 002°04'612.0
2017-Jul-19 16:30N 39°06' E 002°01'612.1
2017-Jul-19 16:00N 39°12' E 001°58'612.2
2017-Jul-19 15:30N 39°18' E 001°56'612.2
2017-Jul-19 15:00N 39°23' E 001°53'612.0
2017-Jul-19 14:31N 39°29' E 001°50'611.6
2017-Jul-19 14:01N 39°35' E 001°51'611.8
2017-Jul-19 13:30N 39°41' E 001°52'612.0
2017-Jul-19 13:00N 39°47' E 001°53'612.4
2017-Jul-19 12:30N 39°53' E 001°54'612.4
2017-Jul-19 12:01N 39°59' E 001°56'612.6
2017-Jul-19 11:31N 40°05' E 001°57'612.6
2017-Jul-19 11:01N 40°11' E 001°58'612.7
2017-Jul-19 10:31N 40°18' E 001°59'612.9
2017-Jul-19 10:01N 40°24' E 002°00'713.0
2017-Jul-19 09:30N 40°30' E 002°01'713.0
2017-Jul-19 09:00N 40°37' E 002°03'613.0
2017-Jul-19 08:30N 40°43' E 002°04'713.0
2017-Jul-19 08:00N 40°50' E 002°05'712.9
2017-Jul-19 07:30N 40°56' E 002°07'713.1
2017-Jul-19 07:00N 41°03' E 002°08'612.9
2017-Jul-19 06:31N 41°09' E 002°09'612.2
2017-Jul-19 06:01N 41°15' E 002°10'4 6.3
2017-Jul-19 05:26N 41°19' E 002°09'0 0.3
2017-Jul-19 05:00N 41°19' E 002°09'0 0.0
2017-Jul-19 04:30N 41°19' E 002°09'0 0.0
2017-Jul-19 04:00N 41°19' E 002°09'0 0.0
2017-Jul-19 03:30N 41°19' E 002°09'0 0.0
2017-Jul-19 03:00N 41°19' E 002°09'0 0.0
2017-Jul-19 02:00N 41°19' E 002°09'0 0.0
2017-Jul-19 01:30N 41°19' E 002°09'0 0.0
2017-Jul-19 01:00N 41°19' E 002°09'0 0.0
2017-Jul-19 00:24N 41°19' E 002°09'0 0.0
2017-Jul-18 23:59N 41°19' E 002°09'0 0.0
2017-Jul-18 23:29N 41°19' E 002°09'0 0.0
2017-Jul-18 22:59N 41°19' E 002°09'0 0.0
2017-Jul-18 22:23N 41°19' E 002°09'0 0.0
2017-Jul-18 21:59N 41°19' E 002°09'0 0.0
2017-Jul-18 21:29N 41°19' E 002°09'0 0.0
2017-Jul-18 20:59N 41°19' E 002°09'0 0.0
2017-Jul-18 20:17N 41°19' E 002°09'0 0.1
2017-Jul-18 19:59N 41°19' E 002°09'0 0.0
2017-Jul-18 19:29N 41°19' E 002°09'0 0.4
2017-Jul-18 19:00N 41°19' E 002°09'3 5.7
2017-Jul-18 18:30N 41°17' E 002°12'0 0.8
2017-Jul-18 18:00N 41°17' E 002°13'1 2.0
2017-Jul-18 17:30N 41°17' E 002°14'2 3.7
2017-Jul-18 17:00N 41°17' E 002°17'1 2.6
2017-Jul-18 16:30N 41°17' E 002°18'0 0.7
2017-Jul-18 16:00N 41°17' E 002°18'0 0.8
2017-Jul-18 15:29N 41°16' E 002°18'0 0.7
2017-Jul-18 15:00N 41°16' E 002°18'1 0.7
2017-Jul-18 13:51N 41°15' E 002°18'0 0.5
2017-Jul-18 13:30N 41°15' E 002°18'0 0.5
2017-Jul-18 13:00N 41°15' E 002°18'0 0.4
2017-Jul-18 12:30N 41°14' E 002°18'0 0.4
2017-Jul-18 11:55N 41°14' E 002°18'0 0.4
2017-Jul-18 11:30N 41°14' E 002°18'0 0.5
2017-Jul-18 11:00N 41°14' E 002°18'0 0.3
2017-Jul-18 10:30N 41°14' E 002°18'0 0.1
2017-Jul-18 09:59N 41°14' E 002°18'2 3.1
2017-Jul-18 09:29N 41°15' E 002°18'4 8.8
2017-Jul-18 09:00N 41°19' E 002°20'4 8.4
2017-Jul-18 08:30N 41°22' E 002°24'5 9.0
2017-Jul-18 08:00N 41°24' E 002°30'4 9.1
2017-Jul-18 07:30N 41°25' E 002°35'5 9.1
2017-Jul-18 07:00N 41°27' E 002°41'5 9.0
2017-Jul-18 06:30N 41°29' E 002°46'5 9.1
2017-Jul-18 06:00N 41°31' E 002°52'5 9.7
2017-Jul-18 05:30N 41°33' E 002°58'5 9.4
2017-Jul-18 04:59N 41°35' E 003°04'5 9.0
2017-Jul-18 04:27N 41°38' E 003°09'4 9.6
2017-Jul-18 04:00N 41°41' E 003°13'5 9.4
2017-Jul-18 03:30N 41°45' E 003°17'5 9.0
2017-Jul-18 03:00N 41°48' E 003°21'5 9.1
2017-Jul-18 02:30N 41°51' E 003°25'4 9.0
2017-Jul-18 02:00N 41°55' E 003°29'5 9.3
2017-Jul-18 01:30N 41°58' E 003°33'5 9.5
2017-Jul-18 00:59N 42°02' E 003°38'4 9.5
2017-Jul-18 00:30N 42°05' E 003°42'5 9.4
2017-Jul-17 23:59N 42°09' E 003°46'5 9.4
2017-Jul-17 23:30N 42°12' E 003°50'5 9.1
2017-Jul-17 23:00N 42°16' E 003°54'5 9.2
2017-Jul-17 22:28N 42°20' E 003°59'4 9.0
2017-Jul-17 22:00N 42°23' E 004°02'5 9.4
2017-Jul-17 21:30N 42°26' E 004°07'5 9.6
2017-Jul-17 21:00N 42°30' E 004°11'5 9.7
2017-Jul-17 20:30N 42°34' E 004°15'5 9.6
2017-Jul-17 20:00N 42°37' E 004°19'5 9.7
2017-Jul-17 19:30N 42°41' E 004°24'5 9.6
2017-Jul-17 19:00N 42°44' E 004°28'5 9.4
2017-Jul-17 18:30N 42°48' E 004°32'5 9.5
2017-Jul-17 17:58N 42°52' E 004°36'5 9.8
2017-Jul-17 17:30N 42°55' E 004°41'5 9.7
2017-Jul-17 17:00N 42°59' E 004°45'5 9.7
2017-Jul-17 16:30N 43°03' E 004°49'5 9.8
2017-Jul-17 16:00N 43°06' E 004°54'5 9.7
2017-Jul-17 15:30N 43°10' E 004°58'5 9.0
2017-Jul-17 15:00N 43°14' E 005°00'5 9.6
2017-Jul-17 14:30N 43°19' E 004°59'510.0
2017-Jul-17 14:00N 43°23' E 004°56'5 6.4
2017-Jul-17 13:18N 43°25' E 004°50'0 0.0
2017-Jul-17 10:54N 43°25' E 004°50'0 0.0
2017-Jul-17 07:09N 43°25' E 004°50'0 0.7
2017-Jul-17 06:53N 43°25' E 004°50'3 6.2
2017-Jul-17 06:28N 43°24' E 004°53'3 5.8
2017-Jul-17 05:59N 43°24' E 004°57'0 0.0
2017-Jul-17 05:29N 43°24' E 004°57'0 0.0
2017-Jul-17 04:59N 43°24' E 004°57'0 0.0
2017-Jul-17 04:23N 43°24' E 004°57'0 0.0
2017-Jul-17 03:59N 43°24' E 004°57'0 0.1
2017-Jul-17 03:29N 43°24' E 004°57'0 0.0
2017-Jul-17 02:59N 43°24' E 004°57'0 0.0
2017-Jul-17 02:29N 43°24' E 004°57'0 0.0
2017-Jul-17 01:59N 43°24' E 004°57'0 0.0
2017-Jul-17 01:26N 43°24' E 004°57'0 0.0
2017-Jul-17 00:59N 43°24' E 004°57'0 0.1
2017-Jul-17 00:26N 43°24' E 004°57'0 0.0
2017-Jul-16 23:59N 43°24' E 004°57'0 0.1
2017-Jul-16 23:20N 43°24' E 004°57'0 0.1
2017-Jul-16 22:59N 43°24' E 004°57'0 0.0
2017-Jul-16 22:26N 43°24' E 004°57'0 0.0
2017-Jul-16 21:59N 43°24' E 004°57'0 0.0
2017-Jul-16 21:23N 43°24' E 004°57'0 0.0
2017-Jul-16 20:59N 43°24' E 004°57'0 0.0
2017-Jul-16 20:29N 43°24' E 004°57'0 0.0
2017-Jul-16 19:59N 43°24' E 004°57'0 0.0
2017-Jul-16 19:29N 43°24' E 004°57'0 0.0
2017-Jul-16 18:59N 43°24' E 004°57'0 0.0
2017-Jul-16 18:29N 43°24' E 004°57'0 0.0
2017-Jul-16 17:59N 43°24' E 004°57'0 0.1
2017-Jul-16 17:23N 43°24' E 004°57'0 0.0
2017-Jul-16 16:59N 43°24' E 004°57'0 0.0
2017-Jul-16 16:29N 43°24' E 004°57'0 0.0
2017-Jul-16 15:59N 43°24' E 004°57'0 0.1
2017-Jul-16 15:29N 43°24' E 004°57'0 0.0
2017-Jul-16 14:59N 43°24' E 004°57'0 0.1
2017-Jul-16 14:29N 43°24' E 004°57'0 0.0
2017-Jul-16 13:59N 43°24' E 004°57'0 0.0
2017-Jul-16 13:25N 43°24' E 004°57'0 0.0
2017-Jul-16 12:55N 43°24' E 004°57'0 0.1
2017-Jul-16 12:25N 43°24' E 004°57'0 0.1
2017-Jul-16 11:55N 43°23' E 004°57'0 0.1
2017-Jul-16 11:25N 43°23' E 004°57'0 0.1
2017-Jul-16 10:55N 43°23' E 004°57'0 0.0
2017-Jul-16 10:25N 43°23' E 004°57'0 0.0
2017-Jul-16 09:55N 43°23' E 004°57'0 0.0
2017-Jul-16 09:25N 43°23' E 004°57'0 0.0
2017-Jul-16 08:55N 43°23' E 004°57'0 0.0
2017-Jul-16 08:25N 43°23' E 004°57'0 0.0
2017-Jul-16 07:55N 43°23' E 004°57'0 0.0
2017-Jul-16 07:25N 43°23' E 004°57'0 0.0
2017-Jul-16 06:55N 43°23' E 004°57'0 0.0
2017-Jul-16 06:25N 43°23' E 004°57'0 0.0
2017-Jul-16 05:55N 43°23' E 004°57'0 0.0
2017-Jul-16 05:25N 43°23' E 004°57'0 0.0
2017-Jul-16 04:55N 43°23' E 004°57'0 0.0
2017-Jul-16 04:25N 43°23' E 004°57'0 0.0
2017-Jul-16 03:55N 43°23' E 004°57'0 0.0
2017-Jul-16 03:25N 43°23' E 004°57'0 0.0
2017-Jul-16 02:55N 43°23' E 004°57'1 2.0
2017-Jul-16 02:30N 43°23' E 004°57'4 7.2
2017-Jul-16 02:00N 43°19' E 004°59'910.0
2017-Jul-16 01:05N 43°11' E 005°03'0 5.8
2017-Jul-16 01:00N 43°10' E 005°03'4 5.1
2017-Jul-16 00:16N 43°09' E 005°08'2 7.8
2017-Jul-16 00:00N 43°09' E 005°11'81 7.5
2017-Jul-15 13:06N 43°02' E 007°02'1 8.3
2017-Jul-15 12:59N 43°02' E 007°03'4 8.4
2017-Jul-15 12:30N 43°03' E 007°08'4 8.7
2017-Jul-15 12:00N 43°05' E 007°14'4 8.6
2017-Jul-15 11:30N 43°07' E 007°19'4 8.7
2017-Jul-15 11:00N 43°08' E 007°25'4 8.6
2017-Jul-15 10:30N 43°10' E 007°30'4 8.4
2017-Jul-15 10:00N 43°11' E 007°36'4 8.3
2017-Jul-15 09:30N 43°12' E 007°41'6 8.2
2017-Jul-15 08:45N 43°15' E 007°49'3 8.1
2017-Jul-15 08:26N 43°16' E 007°52'4 8.1
2017-Jul-15 08:00N 43°17' E 007°57'4 8.2
2017-Jul-15 07:29N 43°19' E 008°02'4 8.3
2017-Jul-15 07:00N 43°20' E 008°07'4 8.1
2017-Jul-15 06:30N 43°22' E 008°12'4 8.1
2017-Jul-15 06:00N 43°24' E 008°17'4 8.3
2017-Jul-15 05:30N 43°26' E 008°22'4 8.1
2017-Jul-15 05:00N 43°28' E 008°27'4 8.1
2017-Jul-15 04:30N 43°30' E 008°32'4 8.1
2017-Jul-15 04:00N 43°32' E 008°36'4 9.0
2017-Jul-15 03:30N 43°34' E 008°42'4 8.9
2017-Jul-15 03:00N 43°36' E 008°47'4 8.9
2017-Jul-15 02:30N 43°38' E 008°53'4 8.7
2017-Jul-15 02:00N 43°40' E 008°58'4 8.6
2017-Jul-15 01:30N 43°42' E 009°03'4 8.5
2017-Jul-15 01:00N 43°44' E 009°09'4 8.4
2017-Jul-15 00:30N 43°46' E 009°14'4 8.6
2017-Jul-15 00:00N 43°48' E 009°19'4 8.6
2017-Jul-14 23:30N 43°50' E 009°24'4 8.6
2017-Jul-14 23:00N 43°52' E 009°30'4 8.6
2017-Jul-14 22:30N 43°54' E 009°35'4 8.6
2017-Jul-14 22:00N 43°56' E 009°40'4 8.5
2017-Jul-14 21:30N 43°58' E 009°45'4 8.5
2017-Jul-14 21:00N 44°00' E 009°51'3 6.8
2017-Jul-14 20:30N 44°02' E 009°54'0 0.1
2017-Jul-14 19:58N 44°02' E 009°54'0 0.0
2017-Jul-14 19:22N 44°02' E 009°54'0 0.0
2017-Jul-14 18:55N 44°02' E 009°54'0 0.0
2017-Jul-14 18:28N 44°02' E 009°54'0 0.0
2017-Jul-14 17:58N 44°02' E 009°54'0 0.0
2017-Jul-14 17:28N 44°02' E 009°54'0 0.0
2017-Jul-14 16:55N 44°02' E 009°54'0 0.0
2017-Jul-14 16:28N 44°02' E 009°54'0 0.0
2017-Jul-14 15:55N 44°02' E 009°54'0 0.0
2017-Jul-14 15:28N 44°02' E 009°54'0 0.0
2017-Jul-14 14:58N 44°02' E 009°54'0 0.0
2017-Jul-14 14:28N 44°02' E 009°54'0 0.0
2017-Jul-14 13:58N 44°02' E 009°54'0 0.0
2017-Jul-14 13:28N 44°02' E 009°54'0 0.0
2017-Jul-14 12:58N 44°02' E 009°54'0 0.1
2017-Jul-14 12:28N 44°02' E 009°54'0 0.0
2017-Jul-14 11:58N 44°02' E 009°54'0 0.0
2017-Jul-14 11:28N 44°02' E 009°54'0 0.0
2017-Jul-14 10:58N 44°02' E 009°54'0 0.0
2017-Jul-14 10:22N 44°02' E 009°54'0 0.0
2017-Jul-14 09:58N 44°02' E 009°54'0 0.2
2017-Jul-14 09:28N 44°02' E 009°54'0 0.3
2017-Jul-14 08:58N 44°02' E 009°54'0 0.0
2017-Jul-14 08:16N 44°02' E 009°54'0 0.0
2017-Jul-14 07:58N 44°02' E 009°54'0 0.0
2017-Jul-14 07:28N 44°02' E 009°54'0 0.0
2017-Jul-14 06:58N 44°02' E 009°54'0 0.0
2017-Jul-14 06:28N 44°02' E 009°54'0 0.0
2017-Jul-14 05:58N 44°02' E 009°54'0 0.1
2017-Jul-14 05:28N 44°02' E 009°54'0 0.1
2017-Jul-14 04:58N 44°02' E 009°54'0 0.1
2017-Jul-14 04:28N 44°02' E 009°54'0 0.0
2017-Jul-14 03:58N 44°02' E 009°54'0 0.0
2017-Jul-14 03:28N 44°02' E 009°54'0 0.0
2017-Jul-14 02:49N 44°02' E 009°54'0 0.1
2017-Jul-14 02:28N 44°02' E 009°54'0 0.1
2017-Jul-14 01:55N 44°02' E 009°54'0 0.0
2017-Jul-14 01:28N 44°02' E 009°54'0 0.0
2017-Jul-14 00:55N 44°02' E 009°54'0 0.0
2017-Jul-14 00:28N 44°02' E 009°54'0 0.0
2017-Jul-13 23:58N 44°02' E 009°54'0 0.0
2017-Jul-13 23:25N 44°02' E 009°54'0 0.0
2017-Jul-13 22:55N 44°02' E 009°54'0 0.0
2017-Jul-13 22:25N 44°02' E 009°54'0 0.0
2017-Jul-13 21:58N 44°02' E 009°54'0 0.0
2017-Jul-13 21:28N 44°02' E 009°54'0 0.1
2017-Jul-13 20:58N 44°02' E 009°54'0 0.0
2017-Jul-13 20:28N 44°02' E 009°54'0 0.0
2017-Jul-13 19:58N 44°02' E 009°54'0 0.0
2017-Jul-13 19:28N 44°02' E 009°54'0 0.0
2017-Jul-13 18:58N 44°02' E 009°54'0 0.0
2017-Jul-13 18:25N 44°02' E 009°54'0 0.0
2017-Jul-13 17:58N 44°02' E 009°54'0 0.0
2017-Jul-13 17:28N 44°02' E 009°54'0 0.0
2017-Jul-13 16:58N 44°02' E 009°54'0 0.0
2017-Jul-13 16:28N 44°02' E 009°54'0 0.0
2017-Jul-13 15:58N 44°02' E 009°54'0 0.0
2017-Jul-13 15:25N 44°02' E 009°54'0 0.0
2017-Jul-13 14:58N 44°02' E 009°54'0 0.0
2017-Jul-13 14:28N 44°02' E 009°54'0 0.0
2017-Jul-13 13:58N 44°02' E 009°54'0 0.0
2017-Jul-13 13:28N 44°02' E 009°54'0 0.0
2017-Jul-13 12:58N 44°02' E 009°54'0 0.0
2017-Jul-13 12:28N 44°02' E 009°54'0 0.0
2017-Jul-13 11:58N 44°02' E 009°54'0 0.0
2017-Jul-13 11:28N 44°02' E 009°54'0 0.8
2017-Jul-13 11:00N 44°03' E 009°54'4 8.8
2017-Jul-13 10:31N 44°06' E 009°51'0 0.4
2017-Jul-13 09:58N 44°07' E 009°51'0 0.0
2017-Jul-13 09:25N 44°07' E 009°51'0 0.0
2017-Jul-13 08:58N 44°07' E 009°51'0 0.0
2017-Jul-13 08:28N 44°07' E 009°51'0 0.0
2017-Jul-13 07:58N 44°07' E 009°51'0 0.0
2017-Jul-13 07:25N 44°07' E 009°51'0 0.0
2017-Jul-13 06:58N 44°07' E 009°51'0 0.0
2017-Jul-13 06:28N 44°07' E 009°51'0 0.0
2017-Jul-13 05:58N 44°07' E 009°51'0 0.0
2017-Jul-13 05:28N 44°07' E 009°51'0 0.0
2017-Jul-13 04:58N 44°07' E 009°51'0 0.0
2017-Jul-13 04:28N 44°07' E 009°51'0 0.0
2017-Jul-13 03:55N 44°07' E 009°51'  

Dump ship's entire track history